Time;durP1;ratioP1;P1;durP2;ratioP2;P2;SDS_P1;SDS_P2;PMS_P1;PMS_P2;Temp;Humidity;BMP_temperature;BMP_pressure;BME280_temperature;BME280_humidity;BME280_pressure;Samples;Min_cycle;Max_cycle;Signal;HPM_P1;HPM_P2
2022/04/16 00:00:58;;;;;;;13.55;9.40;;;9.10;99.90;;;;;;5092672;28;20169;-53
2022/04/16 00:03:24;;;;;;;17.63;10.18;;;9.00;99.90;;;;;;5092937;28;20169;-54
2022/04/16 00:05:54;;;;;;;15.57;10.05;;;9.00;99.90;;;;;;5092539;28;20224;-54
2022/04/16 00:08:22;;;;;;;14.48;9.82;;;9.00;99.90;;;;;;5092604;28;20166;-54
2022/04/16 00:10:48;;;;;;;11.23;9.82;;;9.00;99.90;;;;;;5092103;28;20184;-54
2022/04/16 00:13:14;;;;;;;13.30;9.52;;;9.00;99.90;;;;;;5092459;28;20632;-53
2022/04/16 00:15:40;;;;;;;14.65;10.07;;;9.00;99.90;;;;;;5092514;28;20213;-53
2022/04/16 00:18:06;;;;;;;13.25;10.35;;;9.00;99.90;;;;;;5091951;28;20162;-52
2022/04/16 00:20:33;;;;;;;12.85;10.32;;;9.00;99.90;;;;;;5091161;28;20214;-52
2022/04/16 00:22:58;;;;;;;13.63;9.93;;;9.00;99.90;;;;;;5092256;28;20153;-52
2022/04/16 00:25:24;;;;;;;17.15;10.40;;;9.00;99.90;;;;;;5092008;28;20169;-53
2022/04/16 00:27:50;;;;;;;14.98;10.48;;;8.90;99.90;;;;;;5092385;28;20169;-53
2022/04/16 00:30:17;;;;;;;13.63;11.43;;;8.90;99.90;;;;;;5091995;28;20201;-53
2022/04/16 00:32:44;;;;;;;14.10;11.07;;;8.80;99.90;;;;;;5092386;28;20174;-53
2022/04/16 00:35:09;;;;;;;14.35;10.57;;;8.80;99.90;;;;;;5092508;28;20200;-54
2022/04/16 00:37:35;;;;;;;13.75;11.30;;;8.80;99.90;;;;;;5092032;28;20578;-54
2022/04/16 00:40:01;;;;;;;23.75;11.65;;;8.80;99.90;;;;;;5091827;28;20616;-54
2022/04/16 00:42:41;;;;;;;13.55;11.10;;;8.80;99.90;;;;;;5091725;28;20173;-54
2022/04/16 00:45:07;;;;;;;20.02;11.30;;;8.80;99.90;;;;;;5092414;28;20173;-54
2022/04/16 00:47:33;;;;;;;15.23;12.18;;;8.70;99.90;;;;;;5092073;28;20733;-53
2022/04/16 00:50:00;;;;;;;17.73;11.77;;;8.80;99.90;;;;;;5092068;28;20169;-53
2022/04/16 00:52:26;;;;;;;14.40;11.63;;;8.90;99.90;;;;;;5092091;28;20213;-54
2022/04/16 00:54:55;;;;;;;16.95;11.13;;;8.90;99.90;;;;;;5092237;28;20169;-54
2022/04/16 00:57:23;;;;;;;13.32;11.75;;;8.90;99.90;;;;;;5092134;28;20245;-54
2022/04/16 00:59:49;;;;;;;16.23;12.18;;;9.00;99.90;;;;;;5074072;28;20184;-53
2022/04/16 01:02:14;;;;;;;15.50;11.43;;;9.00;99.90;;;;;;5090679;28;20205;-53
2022/04/16 01:04:40;;;;;;;18.00;11.13;;;9.00;99.90;;;;;;5092193;28;20217;-53
2022/04/16 01:07:06;;;;;;;16.92;10.80;;;8.90;99.90;;;;;;5091821;28;20180;-54
2022/04/16 01:09:33;;;;;;;14.35;10.63;;;8.90;99.90;;;;;;5091796;28;20169;-54
2022/04/16 01:11:59;;;;;;;14.57;10.27;;;8.90;99.90;;;;;;5091823;28;20157;-54
2022/04/16 01:14:25;;;;;;;15.98;11.05;;;8.80;99.90;;;;;;5091726;28;20630;-53
2022/04/16 01:16:56;;;;;;;14.40;11.05;;;8.80;99.90;;;;;;5092027;28;20201;-53
2022/04/16 01:19:22;;;;;;;15.27;10.98;;;8.80;99.90;;;;;;5091698;28;20169;-53
2022/04/16 01:21:48;;;;;;;16.15;11.35;;;8.80;99.90;;;;;;5091684;28;20166;-53
2022/04/16 01:24:14;;;;;;;14.45;10.35;;;8.70;99.90;;;;;;5091642;28;20580;-53
2022/04/16 01:26:41;;;;;;;16.15;11.60;;;8.70;99.90;;;;;;5091994;28;20169;-53
2022/04/16 01:29:08;;;;;;;16.38;11.50;;;8.60;99.90;;;;;;5094531;28;20177;-53
2022/04/16 01:31:34;;;;;;;14.98;11.38;;;8.60;99.90;;;;;;5094427;28;20590;-54
2022/04/16 01:34:00;;;;;;;15.88;11.38;;;8.50;99.90;;;;;;5095632;28;20169;-53
2022/04/16 01:36:29;;;;;;;15.88;11.77;;;8.60;99.90;;;;;;5095815;28;20262;-55
2022/04/16 01:38:56;;;;;;;17.65;11.55;;;8.60;99.90;;;;;;5095534;28;20816;-54
2022/04/16 01:41:21;;;;;;;17.90;11.70;;;8.50;99.90;;;;;;5095662;28;20165;-53
2022/04/16 01:43:47;;;;;;;16.65;11.57;;;8.50;99.90;;;;;;5095505;28;20176;-53
2022/04/16 01:46:12;;;;;;;15.80;12.27;;;8.50;99.90;;;;;;5094241;28;20208;-53
2022/04/16 01:48:38;;;;;;;17.60;13.02;;;8.50;99.90;;;;;;5095798;28;20188;-54
2022/04/16 01:51:05;;;;;;;16.42;12.23;;;8.50;99.90;;;;;;5095427;28;20630;-54
2022/04/16 01:53:31;;;;;;;17.05;12.20;;;8.50;99.90;;;;;;5095756;28;20202;-53
2022/04/16 01:55:57;;;;;;;14.82;11.95;;;8.50;99.90;;;;;;5095229;28;20188;-53
2022/04/16 01:58:22;;;;;;;18.25;12.18;;;8.50;99.90;;;;;;5095310;28;20177;-54
2022/04/16 02:00:49;;;;;;;16.50;12.23;;;8.60;99.90;;;;;;5093989;28;20166;-54
2022/04/16 02:03:15;;;;;;;15.93;12.07;;;8.60;99.90;;;;;;5094228;28;20181;-54
2022/04/16 02:05:41;;;;;;;19.10;12.60;;;8.60;99.90;;;;;;5095807;28;20217;-54
2022/04/16 02:08:07;;;;;;;16.80;12.10;;;7.70;99.90;;;;;;5095410;28;20158;-53
2022/04/16 02:10:35;;;;;;;20.33;12.80;;;8.50;99.90;;;;;;5095272;28;20172;-53
2022/04/16 02:13:01;;;;;;;16.75;13.32;;;8.50;99.90;;;;;;5094980;28;20772;-54
2022/04/16 02:15:27;;;;;;;20.10;14.25;;;8.50;99.90;;;;;;5094910;28;20204;-54
2022/04/16 02:17:54;;;;;;;17.27;13.23;;;8.50;99.90;;;;;;5094996;28;20153;-53
2022/04/16 02:20:21;;;;;;;18.38;12.18;;;8.40;99.90;;;;;;5094872;28;20192;-53
2022/04/16 02:22:47;;;;;;;15.80;12.85;;;8.40;99.90;;;;;;5093534;28;20274;-54
2022/04/16 02:25:14;;;;;;;16.55;13.02;;;8.30;99.90;;;;;;5094793;28;20618;-53
2022/04/16 02:27:41;;;;;;;19.35;13.43;;;8.30;99.90;;;;;;5095081;28;20248;-53
2022/04/16 02:30:09;;;;;;;18.00;13.15;;;8.30;99.90;;;;;;5094981;28;20626;-53
2022/04/16 02:32:39;;;;;;;19.77;13.23;;;8.40;99.90;;;;;;5094725;28;20176;-52
2022/04/16 02:35:06;;;;;;;19.85;12.88;;;8.30;99.90;;;;;;5094568;28;20280;-53
2022/04/16 02:37:32;;;;;;;16.48;12.75;;;8.30;99.90;;;;;;5094697;28;20173;-52
2022/04/16 02:39:58;;;;;;;17.67;12.95;;;8.30;99.90;;;;;;5093644;28;20219;-51
2022/04/16 02:42:23;;;;;;;16.58;12.95;;;8.30;99.90;;;;;;5094485;28;20174;-53
2022/04/16 02:47:33;;;;;;;17.67;13.55;;;8.30;99.90;;;;;;5094638;28;20556;-53
2022/04/16 02:49:59;;;;;;;17.45;13.32;;;8.30;99.90;;;;;;5094298;28;20165;-54
2022/04/16 02:52:25;;;;;;;15.27;12.57;;;8.20;99.90;;;;;;5094300;28;20638;-53
2022/04/16 02:54:52;;;;;;;17.20;13.18;;;8.20;99.90;;;;;;5094193;28;20153;-53
2022/04/16 02:57:18;;;;;;;18.50;13.27;;;8.30;99.90;;;;;;5094205;28;20174;-53
2022/04/16 02:59:46;;;;;;;17.85;14.25;;;8.30;99.90;;;;;;5094139;28;20223;-53
2022/04/16 03:02:12;;;;;;;17.90;12.90;;;8.30;99.90;;;;;;5094530;28;20169;-54
2022/04/16 03:04:38;;;;;;;16.42;12.52;;;8.30;99.90;;;;;;5109876;28;20220;-53
2022/04/16 03:07:04;;;;;;;20.02;13.75;;;8.30;99.90;;;;;;5093984;28;20248;-54
2022/04/16 03:09:30;;;;;;;20.20;12.45;;;8.30;99.90;;;;;;5093871;28;20200;-53
2022/04/16 03:11:55;;;;;;;15.63;10.70;;;8.20;99.90;;;;;;5093953;28;20194;-54
2022/04/16 03:19:49;;;;;;;16.45;10.82;;;8.20;99.90;;;;;;5094002;28;20536;-53
2022/04/16 03:22:15;;;;;;;14.82;10.52;;;8.10;99.90;;;;;;5093615;28;20169;-53
2022/04/16 03:24:41;;;;;;;18.25;12.27;;;8.10;99.90;;;;;;5093868;28;20161;-53
2022/04/16 03:27:07;;;;;;;16.30;11.88;;;8.00;99.90;;;;;;5094111;28;20173;-53
2022/04/16 03:29:34;;;;;;;17.73;12.98;;;8.00;99.90;;;;;;5093488;28;20710;-53
2022/04/16 03:32:00;;;;;;;18.63;13.05;;;8.00;99.90;;;;;;5092472;28;20201;-53
2022/04/16 03:34:25;;;;;;;19.25;13.60;;;8.00;99.90;;;;;;5093372;28;20668;-53
2022/04/16 03:36:51;;;;;;;21.23;14.43;;;7.90;99.90;;;;;;5093270;28;20251;-53
2022/04/16 03:39:16;;;;;;;22.25;14.75;;;7.90;99.90;;;;;;5093343;28;20244;-53
2022/04/16 03:41:42;;;;;;;16.88;13.07;;;7.80;99.90;;;;;;5093262;28;20200;-53
2022/04/16 03:44:08;;;;;;;20.40;14.05;;;7.80;99.90;;;;;;5093494;28;20180;-53
2022/04/16 03:46:33;;;;;;;21.30;14.25;;;7.80;99.90;;;;;;5093386;28;20165;-53
2022/04/16 03:49:02;;;;;;;17.90;13.48;;;7.80;99.90;;;;;;5093254;28;20534;-53
2022/04/16 03:51:27;;;;;;;19.58;14.18;;;7.80;99.90;;;;;;5093323;28;20169;-52
2022/04/16 03:53:54;;;;;;;20.70;14.27;;;7.80;99.90;;;;;;5093060;28;20262;-53
2022/04/16 04:01:48;;;;;;;17.73;13.52;;;7.70;99.90;;;;;;5093180;28;20535;-53
2022/04/16 04:04:13;;;;;;;19.13;14.23;;;7.70;99.90;;;;;;5092584;28;20197;-52
2022/04/16 04:06:40;;;;;;;18.98;13.88;;;7.70;99.90;;;;;;5093243;28;20567;-53
2022/04/16 04:09:06;;;;;;;19.25;13.77;;;7.70;99.90;;;;;;5092707;28;20709;-53
2022/04/16 04:11:32;;;;;;;23.60;15.35;;;7.60;99.90;;;;;;5092676;28;20227;-53
2022/04/16 04:13:57;;;;;;;23.75;16.42;;;7.60;99.90;;;;;;5092704;28;20165;-52
2022/04/16 04:16:23;;;;;;;21.05;15.90;;;7.60;99.90;;;;;;5092613;28;20258;-52
2022/04/16 04:18:49;;;;;;;21.23;15.18;;;7.60;99.90;;;;;;5092522;28;20662;-52
2022/04/16 04:21:14;;;;;;;18.90;13.65;;;7.70;99.90;;;;;;5092593;28;20169;-52
2022/04/16 04:23:39;;;;;;;24.73;14.80;;;7.70;99.90;;;;;;5092748;28;20256;-53
2022/04/16 04:26:05;;;;;;;21.48;13.95;;;7.70;99.90;;;;;;5092453;28;20169;-52
2022/04/16 04:28:30;;;;;;;16.92;13.55;;;7.60;99.90;;;;;;5091208;28;20199;-52
2022/04/16 04:30:56;;;;;;;20.17;14.50;;;7.60;99.90;;;;;;5092339;28;20170;-53
2022/04/16 04:33:21;;;;;;;25.15;15.18;;;7.60;99.90;;;;;;5092332;28;20172;-53
2022/04/16 04:35:50;;;;;;;21.40;15.18;;;7.50;99.90;;;;;;5092224;28;20205;-53
2022/04/16 04:38:16;;;;;;;22.20;15.40;;;7.50;99.90;;;;;;5092525;28;20176;-53
2022/04/16 04:40:41;;;;;;;18.35;14.30;;;7.50;99.90;;;;;;5092300;28;20174;-53
2022/04/16 04:43:07;;;;;;;20.75;13.63;;;7.60;99.90;;;;;;5092507;28;20265;-53
2022/04/16 04:45:33;;;;;;;21.63;14.60;;;7.60;99.90;;;;;;5092162;28;20199;-53
2022/04/16 04:47:58;;;;;;;20.05;15.32;;;7.60;99.90;;;;;;5092385;28;20166;-53
2022/04/16 04:50:24;;;;;;;21.25;14.38;;;7.60;99.90;;;;;;5092010;28;20177;-53
2022/04/16 04:52:49;;;;;;;18.13;14.45;;;7.60;99.90;;;;;;5092085;28;20169;-53
2022/04/16 04:55:15;;;;;;;19.52;14.35;;;7.60;99.90;;;;;;5091826;28;20208;-53
2022/04/16 04:57:42;;;;;;;17.70;13.93;;;7.60;99.90;;;;;;5092491;28;20177;-53
2022/04/16 05:00:09;;;;;;;21.70;16.08;;;7.50;99.90;;;;;;5092468;28;20248;-53
2022/04/16 05:02:45;;;;;;;21.20;16.35;;;7.60;99.90;;;;;;5091506;28;20501;-53
2022/04/16 05:05:11;;;;;;;21.58;14.38;;;7.50;99.90;;;;;;5091476;28;20244;-52
2022/04/16 05:07:37;;;;;;;22.02;15.35;;;7.50;99.90;;;;;;5091993;28;20262;-53
2022/04/16 05:10:03;;;;;;;22.13;16.38;;;7.60;99.90;;;;;;5091987;28;20248;-53
2022/04/16 05:12:29;;;;;;;20.95;15.85;;;7.70;99.90;;;;;;5091716;28;20237;-53
2022/04/16 05:14:54;;;;;;;21.75;15.52;;;7.70;99.90;;;;;;5091901;28;20636;-54
2022/04/16 05:17:20;;;;;;;24.85;16.98;;;7.70;99.90;;;;;;5091886;28;20218;-53
2022/04/16 05:19:45;;;;;;;22.13;16.65;;;7.70;99.90;;;;;;5091704;28;20170;-53
2022/04/16 05:22:11;;;;;;;21.60;15.60;;;7.80;99.90;;;;;;5091732;28;20331;-53
2022/04/16 05:24:36;;;;;;;18.70;14.40;;;7.90;99.90;;;;;;5092008;28;20226;-53
2022/04/16 05:27:02;;;;;;;19.35;14.95;;;7.80;99.90;;;;;;5091771;28;20169;-54
2022/04/16 05:29:48;;;;;;;18.65;14.25;;;7.80;99.90;;;;;;5091379;28;20200;-53
2022/04/16 05:32:16;;;;;;;17.65;14.38;;;7.90;99.90;;;;;;5091439;28;20173;-52
2022/04/16 05:34:42;;;;;;;19.35;14.75;;;8.00;99.90;;;;;;5091548;28;20227;-53
2022/04/16 05:37:08;;;;;;;20.73;14.13;;;8.00;99.90;;;;;;5091766;28;20205;-53
2022/04/16 05:39:33;;;;;;;18.75;14.15;;;8.10;99.90;;;;;;5091838;28;20169;-52
2022/04/16 05:41:59;;;;;;;18.27;13.35;;;8.10;99.90;;;;;;5091666;28;20166;-52
2022/04/16 05:44:24;;;;;;;20.05;14.98;;;7.00;99.90;;;;;;5091436;28;20169;-52
2022/04/16 05:46:50;;;;;;;22.38;15.63;;;8.20;99.90;;;;;;5091586;28;20176;-53
2022/04/16 05:49:15;;;;;;;17.80;14.88;;;8.20;99.90;;;;;;5091693;28;20173;-52
2022/04/16 05:51:41;;;;;;;20.85;15.48;;;8.30;99.90;;;;;;5091387;28;20205;-53
2022/04/16 05:54:06;;;;;;;21.15;17.13;;;8.40;99.90;;;;;;5091697;28;20222;-53
2022/04/16 05:56:34;;;;;;;21.67;16.05;;;8.50;99.90;;;;;;5091310;28;20208;-53
2022/04/16 05:59:00;;;;;;;22.60;16.42;;;8.50;99.90;;;;;;5091403;28;20200;-53
2022/04/16 06:01:26;;;;;;;22.02;16.35;;;8.60;99.90;;;;;;5091308;28;20222;-53
2022/04/16 06:03:52;;;;;;;24.58;16.42;;;8.70;99.90;;;;;;5091363;28;20169;-52
2022/04/16 06:06:17;;;;;;;19.67;15.43;;;8.70;99.90;;;;;;5091187;28;20270;-53
2022/04/16 06:08:43;;;;;;;19.20;16.00;;;8.80;99.90;;;;;;5089996;28;20609;-53
2022/04/16 06:11:11;;;;;;;20.45;15.35;;;8.90;99.90;;;;;;5091494;28;20273;-53
2022/04/16 06:13:36;;;;;;;17.60;14.05;;;8.90;99.90;;;;;;5091442;28;20170;-53
2022/04/16 06:16:02;;;;;;;20.30;15.00;;;9.00;99.90;;;;;;5094045;28;20208;-53
2022/04/16 06:18:28;;;;;;;23.30;15.10;;;9.00;99.90;;;;;;5094812;28;20686;-54
2022/04/16 06:20:56;;;;;;;20.13;14.77;;;9.10;99.90;;;;;;5094832;28;20173;-54
2022/04/16 06:23:21;;;;;;;19.58;14.98;;;9.20;99.90;;;;;;5094821;28;20169;-54
2022/04/16 06:25:47;;;;;;;18.65;14.98;;;9.20;99.90;;;;;;5095097;28;20181;-53
2022/04/16 06:28:12;;;;;;;22.05;14.02;;;9.40;99.90;;;;;;5094501;28;20161;-53
2022/04/16 06:30:38;;;;;;;19.33;13.82;;;9.40;99.90;;;;;;5094794;28;20201;-54
2022/04/16 06:33:04;;;;;;;21.30;14.15;;;9.50;99.90;;;;;;5094148;28;20192;-54
2022/04/16 06:35:29;;;;;;;20.65;14.52;;;9.60;99.90;;;;;;5093115;28;20653;-53
2022/04/16 06:37:55;;;;;;;18.40;14.20;;;9.50;99.90;;;;;;5094115;28;20201;-53
2022/04/16 06:40:21;;;;;;;18.55;14.00;;;9.70;99.90;;;;;;5094042;28;20176;-53
2022/04/16 06:42:47;;;;;;;18.63;14.05;;;9.80;99.90;;;;;;5093811;28;20595;-53
2022/04/16 06:45:13;;;;;;;21.20;15.25;;;9.90;99.90;;;;;;5094013;28;20691;-53
2022/04/16 06:47:39;;;;;;;19.88;14.95;;;10.00;99.90;;;;;;5094504;28;20230;-53
2022/04/16 06:50:06;;;;;;;22.70;15.20;;;10.10;99.90;;;;;;5094140;28;20174;-53
2022/04/16 06:52:32;;;;;;;19.25;15.75;;;10.20;99.90;;;;;;5094037;28;20176;-53
2022/04/16 06:54:58;;;;;;;20.60;15.35;;;10.20;99.90;;;;;;5094247;28;20165;-53
2022/04/16 06:57:24;;;;;;;20.65;16.05;;;10.30;99.90;;;;;;5093251;28;20199;-53
2022/04/16 06:59:50;;;;;;;19.38;15.65;;;10.50;99.90;;;;;;5092975;28;20170;-55
2022/04/16 07:02:15;;;;;;;20.20;14.48;;;10.60;99.90;;;;;;5093994;28;20238;-54
2022/04/16 07:04:41;;;;;;;23.23;14.65;;;10.70;99.90;;;;;;5093819;28;20616;-52
2022/04/16 07:07:08;;;;;;;20.33;15.23;;;10.80;99.90;;;;;;5094503;28;20169;-53
2022/04/16 07:09:40;;;;;;;19.77;14.88;;;10.90;99.90;;;;;;5092552;28;20521;-53
2022/04/16 07:12:10;;;;;;;17.77;13.63;;;11.10;99.90;;;;;;5094316;28;20188;-53
2022/04/16 07:14:39;;;;;;;18.42;13.80;;;11.20;99.90;;;;;;5094183;28;20174;-53
2022/04/16 07:17:06;;;;;;;19.88;14.88;;;11.30;99.90;;;;;;5093708;28;20200;-55
2022/04/16 07:19:33;;;;;;;19.52;13.98;;;11.40;99.90;;;;;;5093715;28;20529;-55
2022/04/16 07:21:59;;;;;;;16.98;13.27;;;11.50;99.90;;;;;;5093641;28;20177;-53
2022/04/16 07:24:25;;;;;;;18.33;14.02;;;11.60;99.90;;;;;;5093929;28;20170;-53
2022/04/16 07:26:54;;;;;;;17.42;13.38;;;11.70;99.90;;;;;;5093122;28;20530;-53
2022/04/16 07:29:22;;;;;;;21.17;13.93;;;11.70;99.90;;;;;;5093523;28;20256;-53
2022/04/16 07:31:47;;;;;;;18.48;13.30;;;11.90;99.90;;;;;;5093387;28;20169;-53
2022/04/16 07:34:13;;;;;;;16.58;12.93;;;11.90;99.90;;;;;;5093232;28;20177;-53
2022/04/16 07:36:39;;;;;;;19.42;13.07;;;12.10;99.90;;;;;;5093860;28;20208;-52
2022/04/16 07:39:04;;;;;;;15.75;12.43;;;12.20;99.90;;;;;;5093281;28;20166;-53
2022/04/16 07:41:30;;;;;;;17.55;12.68;;;12.20;99.90;;;;;;5093346;28;20505;-53
2022/04/16 07:44:02;;;;;;;14.00;11.38;;;12.30;99.90;;;;;;5093113;28;20210;-53
2022/04/16 07:46:28;;;;;;;16.73;12.10;;;12.20;99.90;;;;;;5093412;28;20169;-54
2022/04/16 07:48:54;;;;;;;15.50;12.07;;;12.30;99.90;;;;;;5093401;28;20165;-55
2022/04/16 07:51:19;;;;;;;14.63;12.23;;;12.50;99.90;;;;;;5093346;28;20657;-53
2022/04/16 07:53:45;;;;;;;19.27;12.50;;;12.60;99.90;;;;;;5093075;28;20240;-54
2022/04/16 07:56:10;;;;;;;15.75;12.30;;;12.70;99.90;;;;;;5093071;28;20568;-48
2022/04/16 07:58:35;;;;;;;15.20;11.68;;;12.90;99.90;;;;;;5093289;28;20176;-51
2022/04/16 08:01:01;;;;;;;15.63;11.25;;;12.90;99.90;;;;;;5092902;28;20170;-56
2022/04/16 08:03:26;;;;;;;13.98;11.68;;;13.10;99.90;;;;;;5092885;28;20176;-56
2022/04/16 08:05:52;;;;;;;15.95;11.98;;;13.20;99.90;;;;;;5091316;28;20577;-56
2022/04/16 08:08:17;;;;;;;17.67;11.80;;;13.20;99.90;;;;;;5092835;28;20177;-56
2022/04/16 08:10:43;;;;;;;17.98;10.85;;;13.20;99.90;;;;;;5092860;28;20170;-56
2022/04/16 08:13:08;;;;;;;14.23;11.57;;;13.30;99.90;;;;;;5092931;28;20200;-55
2022/04/16 08:15:34;;;;;;;14.68;11.02;;;13.30;99.90;;;;;;5092554;28;20657;-55
2022/04/16 08:18:01;;;;;;;15.50;11.80;;;13.40;99.90;;;;;;5092596;28;20185;-55
2022/04/16 08:20:27;;;;;;;14.98;11.00;;;13.40;99.90;;;;;;5092532;28;20176;-55
2022/04/16 08:22:52;;;;;;;14.07;10.80;;;13.50;99.90;;;;;;5092567;28;20169;-55
2022/04/16 08:27:48;;;;;;;12.48;10.05;;;13.60;99.90;;;;;;5092753;28;20495;-56
2022/04/16 08:30:15;;;;;;;14.27;9.90;;;13.70;99.90;;;;;;5092416;28;20169;-56
2022/04/16 08:32:41;;;;;;;13.80;10.35;;;13.60;99.90;;;;;;5092313;28;20576;-55
2022/04/16 08:35:15;;;;;;;13.23;9.98;;;13.60;99.90;;;;;;5092481;28;20263;-55
2022/04/16 08:37:41;;;;;;;13.50;10.93;;;13.70;99.90;;;;;;5091420;28;20609;-55
2022/04/16 08:40:09;;;;;;;12.27;10.02;;;13.90;99.90;;;;;;5092525;28;20179;-55
2022/04/16 08:42:37;;;;;;;11.73;9.38;;;13.90;99.90;;;;;;5092108;28;20193;-55
2022/04/16 08:45:04;;;;;;;12.00;10.45;;;14.10;99.90;;;;;;5091977;28;20161;-55
2022/04/16 08:47:30;;;;;;;10.77;9.20;;;14.20;99.90;;;;;;5092307;28;20177;-56
2022/04/16 08:49:58;;;;;;;11.63;9.63;;;14.60;99.90;;;;;;5092027;28;20177;-56
2022/04/16 08:52:28;;;;;;;11.30;9.18;;;14.60;99.90;;;;;;5092135;28;20165;-56
2022/04/16 08:54:55;;;;;;;10.95;9.23;;;14.70;99.90;;;;;;5091922;28;20215;-56
2022/04/16 08:57:20;;;;;;;8.40;7.47;;;14.80;99.90;;;;;;5092103;28;20216;-56
2022/04/16 08:59:51;;;;;;;10.32;8.70;;;15.10;99.90;;;;;;5091976;28;20161;-56
2022/04/16 09:02:17;;;;;;;10.93;7.88;;;14.70;99.90;;;;;;5091955;28;20169;-56
2022/04/16 09:04:43;;;;;;;13.07;8.70;;;15.20;99.90;;;;;;5091777;28;20213;-56
2022/04/16 09:07:09;;;;;;;9.57;7.10;;;15.60;99.90;;;;;;5092173;28;20591;-56
2022/04/16 09:09:35;;;;;;;10.35;8.98;;;15.60;99.90;;;;;;5092176;28;20213;-56
2022/04/16 09:12:01;;;;;;;9.25;6.70;;;16.00;99.90;;;;;;5091766;28;20168;-56
2022/04/16 09:14:37;;;;;;;7.97;6.88;;;15.30;99.90;;;;;;5091692;28;20173;-56
2022/04/16 09:17:08;;;;;;;9.25;7.68;;;15.20;99.90;;;;;;5091873;28;20286;-56
2022/04/16 09:19:34;;;;;;;12.65;7.85;;;15.20;99.90;;;;;;5091963;28;20211;-56
2022/04/16 09:21:59;;;;;;;8.07;6.57;;;15.10;99.90;;;;;;5091611;28;20588;-56
2022/04/16 09:24:25;;;;;;;9.98;7.82;;;15.10;99.90;;;;;;5091725;28;20502;-56
2022/04/16 09:26:51;;;;;;;8.15;6.72;;;14.90;99.90;;;;;;5091609;28;20161;-56
2022/04/16 09:29:18;;;;;;;7.85;7.05;;;14.80;99.90;;;;;;5091896;28;20247;-56
2022/04/16 09:31:46;;;;;;;8.00;6.82;;;14.80;99.90;;;;;;5091590;28;20610;-56
2022/04/16 09:34:24;;;;;;;7.80;6.40;;;14.60;99.90;;;;;;5091804;28;20192;-56
2022/04/16 09:36:50;;;;;;;8.73;6.90;;;14.40;99.90;;;;;;5091430;28;20747;-56
2022/04/16 09:39:17;;;;;;;7.97;7.07;;;14.40;99.90;;;;;;5091786;28;20169;-56
2022/04/16 09:41:47;;;;;;;8.70;6.78;;;14.70;99.90;;;;;;5091565;28;20176;-56
2022/04/16 09:44:21;;;;;;;10.43;7.88;;;15.30;99.90;;;;;;5091720;28;20619;-56
2022/04/16 09:46:48;;;;;;;9.05;7.57;;;15.30;99.90;;;;;;5091443;28;20165;-56
2022/04/16 09:49:16;;;;;;;7.88;7.05;;;15.50;99.90;;;;;;5093228;28;20172;-56
2022/04/16 09:51:44;;;;;;;8.90;6.82;;;17.30;99.90;;;;;;5095463;28;20165;-56
2022/04/16 09:54:10;;;;;;;7.07;6.13;;;15.30;99.90;;;;;;5095557;28;20232;-56
2022/04/16 09:56:37;;;;;;;6.57;5.85;;;15.30;99.90;;;;;;5095488;28;20205;-56
2022/04/16 09:59:05;;;;;;;8.20;6.65;;;15.10;99.90;;;;;;5095234;28;20290;-57
2022/04/16 10:01:32;;;;;;;7.60;5.90;;;15.00;99.90;;;;;;5095135;28;20173;-57
2022/04/16 10:04:00;;;;;;;7.22;5.97;;;15.00;99.90;;;;;;5095207;28;20173;-56
2022/04/16 10:06:28;;;;;;;7.18;5.95;;;15.40;99.90;;;;;;5095239;28;20217;-56
2022/04/16 10:08:55;;;;;;;6.95;5.88;;;15.60;99.90;;;;;;5094785;28;20161;-56
2022/04/16 10:11:42;;;;;;;7.18;6.28;;;15.50;99.90;;;;;;5095038;28;20169;-56
2022/04/16 10:14:41;;;;;;;6.82;6.13;;;15.30;99.90;;;;;;5095447;28;20173;-56
2022/04/16 10:17:30;;;;;;;7.70;6.05;;;15.50;99.90;;;;;;5090207;28;20209;-56
2022/04/16 10:20:12;;;;;;;7.88;5.07;;;15.50;99.90;;;;;;5095075;28;20238;-56
2022/04/16 10:22:38;;;;;;;6.88;5.43;;;15.80;99.90;;;;;;5095197;28;20178;-55
2022/04/16 10:25:04;;;;;;;5.35;4.72;;;15.50;99.90;;;;;;5094730;28;20602;-55
2022/04/16 10:27:48;;;;;;;6.80;4.75;;;15.40;99.90;;;;;;5094864;28;20320;-56
2022/04/16 10:30:13;;;;;;;5.55;4.75;;;15.90;99.90;;;;;;5094514;28;20161;-55
2022/04/16 10:32:40;;;;;;;4.68;4.18;;;16.00;99.90;;;;;;5094671;28;20168;-56
2022/04/16 10:35:11;;;;;;;5.15;4.30;;;15.70;99.90;;;;;;5094724;28;20219;-55
2022/04/16 10:37:39;;;;;;;4.30;3.80;;;15.90;99.90;;;;;;5093391;28;20220;-55
2022/04/16 10:40:25;;;;;;;5.00;4.50;;;16.30;99.90;;;;;;5094393;28;20257;-56
2022/04/16 10:42:57;;;;;;;5.78;4.40;;;16.20;99.90;;;;;;5094322;28;20653;-55
2022/04/16 10:45:22;;;;;;;4.40;4.00;;;16.20;99.90;;;;;;5094339;28;20260;-55
2022/04/16 10:47:54;;;;;;;6.65;3.88;;;16.30;99.90;;;;;;5094168;28;20580;-55
2022/04/16 10:50:21;;;;;;;5.28;4.05;;;16.50;99.90;;;;;;5093953;28;20534;-55
2022/04/16 10:52:58;;;;;;;4.35;3.80;;;16.20;99.90;;;;;;5094379;28;20189;-55
2022/04/16 10:55:31;;;;;;;3.95;3.55;;;16.40;99.90;;;;;;5094197;28;20184;-56
2022/04/16 10:57:58;;;;;;;6.13;3.60;;;16.40;99.90;;;;;;5093991;28;20172;-55
2022/04/16 11:00:35;;;;;;;3.50;2.70;;;16.50;99.90;;;;;;5092006;28;20227;-55
2022/04/16 11:03:28;;;;;;;3.10;2.72;;;16.60;99.90;;;;;;5094163;28;20248;-55
2022/04/16 11:06:04;;;;;;;2.97;2.67;;;16.50;99.90;;;;;;5093706;28;20227;-55
2022/04/16 11:08:32;;;;;;;3.20;2.90;;;16.80;99.90;;;;;;5093889;28;20165;-55
2022/04/16 11:10:58;;;;;;;2.85;2.65;;;16.70;99.90;;;;;;5093822;28;20189;-55
2022/04/16 11:13:25;;;;;;;3.05;2.63;;;16.90;99.90;;;;;;5093806;28;20266;-55
2022/04/16 11:15:51;;;;;;;3.80;2.60;;;17.00;99.90;;;;;;5093634;28;20201;-55
2022/04/16 11:18:18;;;;;;;2.88;2.60;;;16.90;99.30;;;;;;5093740;28;20211;-55
2022/04/16 11:20:56;;;;;;;3.20;2.40;;;17.00;99.90;;;;;;5093744;28;20166;-56
2022/04/16 11:23:27;;;;;;;3.42;2.30;;;17.10;99.90;;;;;;5093591;28;20312;-55
2022/04/16 11:34:14;;;;;;;2.05;1.85;;;17.20;97.90;;;;;;5093471;28;20592;-55
2022/04/16 11:36:40;;;;;;;2.05;1.85;;;17.40;96.60;;;;;;5093559;28;20311;-55
2022/04/16 11:39:05;;;;;;;2.83;2.10;;;17.40;96.00;;;;;;5093718;28;20169;-55
2022/04/16 11:41:32;;;;;;;2.28;2.00;;;17.60;96.30;;;;;;5093233;28;20248;-55
2022/04/16 11:43:58;;;;;;;2.40;2.20;;;17.40;94.20;;;;;;5093261;28;20173;-55
2022/04/16 11:46:24;;;;;;;2.88;2.03;;;17.50;96.40;;;;;;5093075;28;20192;-55
2022/04/16 11:48:51;;;;;;;3.78;2.40;;;17.50;94.30;;;;;;5093015;28;20165;-55
2022/04/16 11:51:19;;;;;;;2.63;2.17;;;17.40;94.20;;;;;;5093266;28;20173;-55
2022/04/16 11:53:50;;;;;;;3.22;2.55;;;17.60;93.20;;;;;;5092942;28;20622;-55
2022/04/16 11:56:19;;;;;;;3.42;2.40;;;17.80;93.60;;;;;;5092814;28;20262;-54
2022/04/16 11:58:49;;;;;;;42.35;37.72;;;17.70;92.90;;;;;;5092923;28;20254;-55
2022/04/16 12:01:20;;;;;;;3.97;3.33;;;17.90;93.40;;;;;;5093280;28;20181;-55
2022/04/16 12:03:45;;;;;;;2.10;1.90;;;18.00;92.70;;;;;;5093043;28;20169;-54
2022/04/16 12:06:13;;;;;;;4.60;3.70;;;17.80;91.50;;;;;;5092326;28;20225;-55
2022/04/16 12:08:42;;;;;;;6.10;5.55;;;17.90;91.90;;;;;;5093010;28;20177;-55
2022/04/16 12:11:09;;;;;;;5.15;3.00;;;17.70;91.00;;;;;;5092953;28;20164;-55
2022/04/16 12:13:39;;;;;;;4.20;2.40;;;17.80;90.70;;;;;;5091738;28;20161;-55
2022/04/16 12:16:10;;;;;;;3.38;3.08;;;17.70;90.00;;;;;;5092765;28;20387;-55
2022/04/16 12:18:37;;;;;;;3.20;2.30;;;17.80;89.20;;;;;;5093060;28;20165;-55
2022/04/16 12:21:08;;;;;;;3.13;2.83;;;17.80;90.50;;;;;;5092507;28;20185;-55
2022/04/16 12:23:34;;;;;;;2.20;2.00;;;17.80;90.40;;;;;;5092453;28;20634;-55
2022/04/16 12:26:11;;;;;;;2.38;2.17;;;17.90;90.60;;;;;;5092514;28;20270;-55
2022/04/16 12:28:47;;;;;;;2.38;2.00;;;17.80;88.00;;;;;;5092935;28;20164;-55
2022/04/16 12:31:23;;;;;;;4.07;2.53;;;18.10;89.70;;;;;;5092155;28;20160;-55
2022/04/16 12:33:49;;;;;;;3.25;2.80;;;18.10;88.30;;;;;;5092272;28;20516;-56
2022/04/16 12:36:14;;;;;;;2.50;2.30;;;18.30;90.00;;;;;;5092231;28;20209;-56
2022/04/16 12:38:40;;;;;;;3.15;2.45;;;18.40;86.90;;;;;;5092147;28;20169;-55
2022/04/16 12:41:08;;;;;;;3.35;2.97;;;18.30;90.50;;;;;;5092756;28;20705;-55
2022/04/16 12:43:34;;;;;;;6.07;4.85;;;18.50;87.20;;;;;;5091809;28;20630;-57
2022/04/16 12:45:59;;;;;;;7.00;2.80;;;18.50;87.10;;;;;;5091780;28;20161;-56
2022/04/16 12:48:25;;;;;;;4.45;4.05;;;18.60;86.20;;;;;;5091642;28;20161;-56
2022/04/16 12:50:51;;;;;;;3.10;2.22;;;18.70;87.90;;;;;;5092182;28;20169;-56
2022/04/16 12:53:16;;;;;;;2.83;2.60;;;18.40;84.00;;;;;;5091921;28;20177;-56
2022/04/16 12:55:42;;;;;;;2.70;2.50;;;18.30;86.10;;;;;;5091874;28;20197;-56
2022/04/16 12:58:07;;;;;;;2.75;2.45;;;18.00;84.80;;;;;;5092441;28;20200;-55
2022/04/16 13:00:34;;;;;;;2.50;2.13;;;18.10;84.10;;;;;;5091885;28;20195;-55
2022/04/16 13:03:00;;;;;;;3.30;2.38;;;18.30;84.90;;;;;;5091877;28;20180;-55